sensor_id;sensor_type;location;lat;lon;timestamp;P1;durP1;ratioP1;P2;durP2;ratioP2
14799;SDS011;7491;57.750;11.970;2023-02-01T00:01:41;15.93;;;3.30;;
14799;SDS011;7491;57.750;11.970;2023-02-01T00:04:07;14.75;;;3.80;;
14799;SDS011;7491;57.750;11.970;2023-02-01T00:06:34;17.25;;;3.55;;
14799;SDS011;7491;57.750;11.970;2023-02-01T00:09:00;20.20;;;3.10;;
14799;SDS011;7491;57.750;11.970;2023-02-01T00:11:28;18.85;;;3.88;;
14799;SDS011;7491;57.750;11.970;2023-02-01T00:13:56;15.48;;;3.53;;
14799;SDS011;7491;57.750;11.970;2023-02-01T00:16:23;23.83;;;4.95;;
14799;SDS011;7491;57.750;11.970;2023-02-01T00:18:51;24.10;;;3.63;;
14799;SDS011;7491;57.750;11.970;2023-02-01T00:21:18;19.10;;;3.10;;
14799;SDS011;7491;57.750;11.970;2023-02-01T00:23:45;16.38;;;3.45;;
14799;SDS011;7491;57.750;11.970;2023-02-01T00:26:13;17.33;;;3.92;;
14799;SDS011;7491;57.750;11.970;2023-02-01T00:28:41;15.73;;;3.13;;
14799;SDS011;7491;57.750;11.970;2023-02-01T00:31:07;19.83;;;3.88;;
14799;SDS011;7491;57.750;11.970;2023-02-01T00:33:34;15.70;;;4.20;;
14799;SDS011;7491;57.750;11.970;2023-02-01T00:36:01;19.02;;;3.45;;
14799;SDS011;7491;57.750;11.970;2023-02-01T00:38:28;14.77;;;2.58;;
14799;SDS011;7491;57.750;11.970;2023-02-01T00:41:01;20.52;;;3.30;;
14799;SDS011;7491;57.750;11.970;2023-02-01T00:43:27;16.38;;;3.65;;
14799;SDS011;7491;57.750;11.970;2023-02-01T00:45:55;17.95;;;4.10;;
14799;SDS011;7491;57.750;11.970;2023-02-01T00:48:21;11.23;;;2.65;;
14799;SDS011;7491;57.750;11.970;2023-02-01T00:50:48;23.35;;;3.70;;
14799;SDS011;7491;57.750;11.970;2023-02-01T00:53:14;23.55;;;3.10;;
14799;SDS011;7491;57.750;11.970;2023-02-01T00:55:41;18.42;;;4.10;;
14799;SDS011;7491;57.750;11.970;2023-02-01T00:58:10;20.60;;;3.97;;
14799;SDS011;7491;57.750;11.970;2023-02-01T01:00:36;16.00;;;3.75;;
14799;SDS011;7491;57.750;11.970;2023-02-01T01:03:04;22.45;;;3.67;;
14799;SDS011;7491;57.750;11.970;2023-02-01T01:05:42;18.90;;;3.00;;
14799;SDS011;7491;57.750;11.970;2023-02-01T01:08:09;15.88;;;3.10;;
14799;SDS011;7491;57.750;11.970;2023-02-01T01:10:35;16.98;;;3.35;;
14799;SDS011;7491;57.750;11.970;2023-02-01T01:13:01;26.02;;;6.03;;
14799;SDS011;7491;57.750;11.970;2023-02-01T01:15:28;16.60;;;3.38;;
14799;SDS011;7491;57.750;11.970;2023-02-01T01:17:54;19.65;;;3.58;;
14799;SDS011;7491;57.750;11.970;2023-02-01T01:20:22;19.52;;;3.28;;
14799;SDS011;7491;57.750;11.970;2023-02-01T01:22:48;22.27;;;4.43;;
14799;SDS011;7491;57.750;11.970;2023-02-01T01:25:15;15.80;;;3.08;;
14799;SDS011;7491;57.750;11.970;2023-02-01T01:27:41;15.80;;;3.83;;
14799;SDS011;7491;57.750;11.970;2023-02-01T01:30:08;14.80;;;3.13;;
14799;SDS011;7491;57.750;11.970;2023-02-01T01:32:34;20.52;;;3.97;;
14799;SDS011;7491;57.750;11.970;2023-02-01T01:35:01;15.82;;;3.28;;
14799;SDS011;7491;57.750;11.970;2023-02-01T01:37:29;19.67;;;3.80;;
14799;SDS011;7491;57.750;11.970;2023-02-01T01:39:55;20.25;;;5.15;;
14799;SDS011;7491;57.750;11.970;2023-02-01T01:42:23;22.58;;;4.45;;
14799;SDS011;7491;57.750;11.970;2023-02-01T01:44:57;20.77;;;4.57;;
14799;SDS011;7491;57.750;11.970;2023-02-01T01:47:24;19.10;;;4.25;;
14799;SDS011;7491;57.750;11.970;2023-02-01T01:49:51;19.80;;;4.68;;
14799;SDS011;7491;57.750;11.970;2023-02-01T01:52:18;20.35;;;5.22;;
14799;SDS011;7491;57.750;11.970;2023-02-01T01:54:46;23.52;;;3.60;;
14799;SDS011;7491;57.750;11.970;2023-02-01T01:57:14;28.30;;;5.22;;
14799;SDS011;7491;57.750;11.970;2023-02-01T01:59:43;21.00;;;4.18;;
14799;SDS011;7491;57.750;11.970;2023-02-01T02:02:12;16.52;;;3.50;;
14799;SDS011;7491;57.750;11.970;2023-02-01T02:04:38;23.33;;;5.00;;
14799;SDS011;7491;57.750;11.970;2023-02-01T02:07:06;16.67;;;4.22;;
14799;SDS011;7491;57.750;11.970;2023-02-01T02:09:34;19.02;;;4.28;;
14799;SDS011;7491;57.750;11.970;2023-02-01T02:12:02;18.27;;;3.72;;
14799;SDS011;7491;57.750;11.970;2023-02-01T02:14:28;17.58;;;3.72;;
14799;SDS011;7491;57.750;11.970;2023-02-01T02:17:02;19.55;;;4.25;;
14799;SDS011;7491;57.750;11.970;2023-02-01T02:22:26;19.27;;;5.22;;
14799;SDS011;7491;57.750;11.970;2023-02-01T02:25:02;22.00;;;4.75;;
14799;SDS011;7491;57.750;11.970;2023-02-01T02:27:36;19.50;;;4.35;;
14799;SDS011;7491;57.750;11.970;2023-02-01T02:32:54;18.50;;;4.00;;
14799;SDS011;7491;57.750;11.970;2023-02-01T02:35:29;32.80;;;4.90;;
14799;SDS011;7491;57.750;11.970;2023-02-01T02:37:59;30.83;;;4.50;;
14799;SDS011;7491;57.750;11.970;2023-02-01T02:40:27;18.65;;;3.72;;
14799;SDS011;7491;57.750;11.970;2023-02-01T02:42:58;24.05;;;4.78;;
14799;SDS011;7491;57.750;11.970;2023-02-01T02:45:43;23.67;;;4.63;;
14799;SDS011;7491;57.750;11.970;2023-02-01T02:48:28;23.25;;;5.93;;
14799;SDS011;7491;57.750;11.970;2023-02-01T02:50:59;18.20;;;4.28;;
14799;SDS011;7491;57.750;11.970;2023-02-01T02:53:45;22.52;;;4.93;;
14799;SDS011;7491;57.750;11.970;2023-02-01T02:56:31;27.83;;;5.88;;
14799;SDS011;7491;57.750;11.970;2023-02-01T02:59:17;18.38;;;4.80;;
14799;SDS011;7491;57.750;11.970;2023-02-01T03:02:03;23.42;;;4.15;;
14799;SDS011;7491;57.750;11.970;2023-02-01T03:04:51;19.77;;;3.95;;
14799;SDS011;7491;57.750;11.970;2023-02-01T03:10:00;22.40;;;4.60;;
14799;SDS011;7491;57.750;11.970;2023-02-01T03:12:30;22.73;;;5.25;;
14799;SDS011;7491;57.750;11.970;2023-02-01T03:15:16;27.88;;;4.75;;
14799;SDS011;7491;57.750;11.970;2023-02-01T03:17:42;26.58;;;4.25;;
14799;SDS011;7491;57.750;11.970;2023-02-01T03:20:10;33.40;;;6.63;;
14799;SDS011;7491;57.750;11.970;2023-02-01T03:22:38;22.50;;;4.85;;
14799;SDS011;7491;57.750;11.970;2023-02-01T03:25:09;30.60;;;6.00;;
14799;SDS011;7491;57.750;11.970;2023-02-01T03:27:37;25.27;;;5.82;;
14799;SDS011;7491;57.750;11.970;2023-02-01T03:30:08;31.65;;;4.78;;
14799;SDS011;7491;57.750;11.970;2023-02-01T03:32:36;29.02;;;5.20;;
14799;SDS011;7491;57.750;11.970;2023-02-01T03:35:16;38.90;;;5.97;;
14799;SDS011;7491;57.750;11.970;2023-02-01T03:37:43;31.90;;;6.40;;
14799;SDS011;7491;57.750;11.970;2023-02-01T03:40:12;35.30;;;6.22;;
14799;SDS011;7491;57.750;11.970;2023-02-01T03:42:40;25.80;;;5.00;;
14799;SDS011;7491;57.750;11.970;2023-02-01T03:45:10;34.20;;;7.63;;
14799;SDS011;7491;57.750;11.970;2023-02-01T03:47:38;26.80;;;5.25;;
14799;SDS011;7491;57.750;11.970;2023-02-01T03:50:06;39.70;;;6.75;;
14799;SDS011;7491;57.750;11.970;2023-02-01T03:52:35;33.75;;;7.88;;
14799;SDS011;7491;57.750;11.970;2023-02-01T03:55:04;39.63;;;7.32;;
14799;SDS011;7491;57.750;11.970;2023-02-01T03:57:33;34.42;;;6.10;;
14799;SDS011;7491;57.750;11.970;2023-02-01T04:00:03;32.10;;;7.03;;
14799;SDS011;7491;57.750;11.970;2023-02-01T04:02:30;31.85;;;6.10;;
14799;SDS011;7491;57.750;11.970;2023-02-01T04:04:56;30.95;;;6.15;;
14799;SDS011;7491;57.750;11.970;2023-02-01T04:07:23;30.23;;;6.15;;
14799;SDS011;7491;57.750;11.970;2023-02-01T04:09:49;32.53;;;7.15;;
14799;SDS011;7491;57.750;11.970;2023-02-01T04:12:15;28.67;;;6.28;;
14799;SDS011;7491;57.750;11.970;2023-02-01T04:14:43;28.52;;;5.75;;
14799;SDS011;7491;57.750;11.970;2023-02-01T04:17:10;34.85;;;6.97;;
14799;SDS011;7491;57.750;11.970;2023-02-01T04:19:36;26.02;;;4.63;;
14799;SDS011;7491;57.750;11.970;2023-02-01T04:22:02;27.92;;;4.88;;
14799;SDS011;7491;57.750;11.970;2023-02-01T04:24:29;35.10;;;6.95;;
14799;SDS011;7491;57.750;11.970;2023-02-01T04:26:55;31.55;;;7.03;;
14799;SDS011;7491;57.750;11.970;2023-02-01T04:29:22;34.67;;;6.95;;
14799;SDS011;7491;57.750;11.970;2023-02-01T04:31:49;24.50;;;5.55;;
14799;SDS011;7491;57.750;11.970;2023-02-01T04:34:16;35.88;;;7.18;;
14799;SDS011;7491;57.750;11.970;2023-02-01T04:36:42;40.50;;;8.02;;
14799;SDS011;7491;57.750;11.970;2023-02-01T04:39:09;33.65;;;6.88;;
14799;SDS011;7491;57.750;11.970;2023-02-01T04:41:35;33.58;;;7.53;;
14799;SDS011;7491;57.750;11.970;2023-02-01T04:44:01;37.05;;;7.75;;
14799;SDS011;7491;57.750;11.970;2023-02-01T04:46:28;32.83;;;6.80;;
14799;SDS011;7491;57.750;11.970;2023-02-01T04:48:56;33.03;;;7.68;;
14799;SDS011;7491;57.750;11.970;2023-02-01T04:51:22;27.88;;;5.97;;
14799;SDS011;7491;57.750;11.970;2023-02-01T04:53:48;29.60;;;7.18;;
14799;SDS011;7491;57.750;11.970;2023-02-01T04:56:15;29.15;;;5.32;;
14799;SDS011;7491;57.750;11.970;2023-02-01T04:58:41;26.05;;;5.82;;
14799;SDS011;7491;57.750;11.970;2023-02-01T05:01:08;33.72;;;6.35;;
14799;SDS011;7491;57.750;11.970;2023-02-01T05:03:34;34.45;;;6.95;;
14799;SDS011;7491;57.750;11.970;2023-02-01T05:06:02;34.35;;;6.97;;
14799;SDS011;7491;57.750;11.970;2023-02-01T05:08:30;36.03;;;5.18;;
14799;SDS011;7491;57.750;11.970;2023-02-01T05:10:56;29.98;;;4.55;;
14799;SDS011;7491;57.750;11.970;2023-02-01T05:13:23;28.60;;;5.53;;
14799;SDS011;7491;57.750;11.970;2023-02-01T05:16:08;29.70;;;7.22;;
14799;SDS011;7491;57.750;11.970;2023-02-01T05:18:34;25.45;;;4.43;;
14799;SDS011;7491;57.750;11.970;2023-02-01T05:21:00;33.38;;;6.07;;
14799;SDS011;7491;57.750;11.970;2023-02-01T05:23:28;33.10;;;5.15;;
14799;SDS011;7491;57.750;11.970;2023-02-01T05:25:57;32.50;;;7.22;;
14799;SDS011;7491;57.750;11.970;2023-02-01T05:28:24;31.17;;;6.32;;
14799;SDS011;7491;57.750;11.970;2023-02-01T05:30:50;36.50;;;6.43;;
14799;SDS011;7491;57.750;11.970;2023-02-01T05:33:17;33.38;;;5.22;;
14799;SDS011;7491;57.750;11.970;2023-02-01T05:35:43;30.90;;;5.20;;
14799;SDS011;7491;57.750;11.970;2023-02-01T05:38:09;29.52;;;6.45;;
14799;SDS011;7491;57.750;11.970;2023-02-01T05:40:37;33.75;;;5.88;;
14799;SDS011;7491;57.750;11.970;2023-02-01T05:43:04;26.67;;;6.05;;
14799;SDS011;7491;57.750;11.970;2023-02-01T05:45:30;27.38;;;5.43;;
14799;SDS011;7491;57.750;11.970;2023-02-01T05:47:56;30.73;;;6.72;;
14799;SDS011;7491;57.750;11.970;2023-02-01T05:50:23;25.50;;;6.32;;
14799;SDS011;7491;57.750;11.970;2023-02-01T05:52:49;15.75;;;4.07;;
14799;SDS011;7491;57.750;11.970;2023-02-01T05:55:16;24.10;;;5.80;;
14799;SDS011;7491;57.750;11.970;2023-02-01T05:57:43;27.58;;;4.57;;
14799;SDS011;7491;57.750;11.970;2023-02-01T06:00:10;29.85;;;5.82;;
14799;SDS011;7491;57.750;11.970;2023-02-01T06:02:37;25.77;;;5.03;;
14799;SDS011;7491;57.750;11.970;2023-02-01T06:05:03;21.67;;;4.90;;
14799;SDS011;7491;57.750;11.970;2023-02-01T06:07:30;27.38;;;4.47;;
14799;SDS011;7491;57.750;11.970;2023-02-01T06:09:57;23.65;;;5.10;;
14799;SDS011;7491;57.750;11.970;2023-02-01T06:12:23;25.33;;;3.90;;
14799;SDS011;7491;57.750;11.970;2023-02-01T06:14:54;22.48;;;4.20;;
14799;SDS011;7491;57.750;11.970;2023-02-01T06:17:20;31.20;;;5.68;;
14799;SDS011;7491;57.750;11.970;2023-02-01T06:19:47;30.73;;;4.70;;
14799;SDS011;7491;57.750;11.970;2023-02-01T06:22:14;22.58;;;5.45;;
14799;SDS011;7491;57.750;11.970;2023-02-01T06:24:40;26.73;;;5.47;;
14799;SDS011;7491;57.750;11.970;2023-02-01T06:27:06;21.60;;;5.32;;
14799;SDS011;7491;57.750;11.970;2023-02-01T06:29:34;22.75;;;5.57;;
14799;SDS011;7491;57.750;11.970;2023-02-01T06:32:02;26.45;;;5.20;;
14799;SDS011;7491;57.750;11.970;2023-02-01T06:34:28;30.60;;;5.40;;
14799;SDS011;7491;57.750;11.970;2023-02-01T06:36:55;26.98;;;5.15;;
14799;SDS011;7491;57.750;11.970;2023-02-01T06:39:21;20.88;;;3.80;;
14799;SDS011;7491;57.750;11.970;2023-02-01T06:41:47;35.53;;;5.05;;
14799;SDS011;7491;57.750;11.970;2023-02-01T06:44:14;24.67;;;5.28;;
14799;SDS011;7491;57.750;11.970;2023-02-01T06:46:40;27.63;;;4.97;;
14799;SDS011;7491;57.750;11.970;2023-02-01T06:49:08;30.30;;;5.07;;
14799;SDS011;7491;57.750;11.970;2023-02-01T06:51:35;31.10;;;5.28;;
14799;SDS011;7491;57.750;11.970;2023-02-01T06:54:01;23.85;;;4.47;;
14799;SDS011;7491;57.750;11.970;2023-02-01T06:56:27;22.65;;;4.95;;
14799;SDS011;7491;57.750;11.970;2023-02-01T06:58:56;25.77;;;5.07;;
14799;SDS011;7491;57.750;11.970;2023-02-01T07:01:22;20.52;;;4.03;;
14799;SDS011;7491;57.750;11.970;2023-02-01T07:03:49;22.02;;;4.13;;
14799;SDS011;7491;57.750;11.970;2023-02-01T07:06:18;17.10;;;3.70;;
14799;SDS011;7491;57.750;11.970;2023-02-01T07:08:45;18.02;;;3.78;;
14799;SDS011;7491;57.750;11.970;2023-02-01T07:11:12;22.20;;;3.97;;
14799;SDS011;7491;57.750;11.970;2023-02-01T07:13:39;19.75;;;4.00;;
14799;SDS011;7491;57.750;11.970;2023-02-01T07:16:06;28.90;;;5.10;;
14799;SDS011;7491;57.750;11.970;2023-02-01T07:18:33;25.42;;;3.97;;
14799;SDS011;7491;57.750;11.970;2023-02-01T07:20:59;22.10;;;4.80;;
14799;SDS011;7491;57.750;11.970;2023-02-01T07:23:27;28.35;;;5.35;;
14799;SDS011;7491;57.750;11.970;2023-02-01T07:25:54;28.27;;;5.10;;
14799;SDS011;7491;57.750;11.970;2023-02-01T07:28:21;22.85;;;4.68;;
14799;SDS011;7491;57.750;11.970;2023-02-01T07:30:47;20.63;;;4.97;;
14799;SDS011;7491;57.750;11.970;2023-02-01T07:33:16;25.77;;;4.82;;
14799;SDS011;7491;57.750;11.970;2023-02-01T07:35:42;28.50;;;4.10;;
14799;SDS011;7491;57.750;11.970;2023-02-01T07:38:09;15.65;;;3.50;;
14799;SDS011;7491;57.750;11.970;2023-02-01T07:40:36;18.65;;;4.05;;
14799;SDS011;7491;57.750;11.970;2023-02-01T07:43:03;18.02;;;4.38;;
14799;SDS011;7491;57.750;11.970;2023-02-01T07:45:31;14.50;;;3.42;;
14799;SDS011;7491;57.750;11.970;2023-02-01T07:47:57;22.48;;;3.88;;
14799;SDS011;7491;57.750;11.970;2023-02-01T07:50:23;25.40;;;4.70;;
14799;SDS011;7491;57.750;11.970;2023-02-01T07:52:50;24.98;;;3.55;;
14799;SDS011;7491;57.750;11.970;2023-02-01T07:55:18;18.38;;;4.07;;
14799;SDS011;7491;57.750;11.970;2023-02-01T07:57:46;19.20;;;3.72;;
14799;SDS011;7491;57.750;11.970;2023-02-01T08:00:13;20.90;;;4.20;;
14799;SDS011;7491;57.750;11.970;2023-02-01T08:02:57;21.95;;;4.28;;
14799;SDS011;7491;57.750;11.970;2023-02-01T08:05:23;15.27;;;3.75;;
14799;SDS011;7491;57.750;11.970;2023-02-01T08:07:50;16.58;;;3.88;;
14799;SDS011;7491;57.750;11.970;2023-02-01T08:10:16;20.58;;;4.05;;
14799;SDS011;7491;57.750;11.970;2023-02-01T08:12:43;29.27;;;3.92;;
14799;SDS011;7491;57.750;11.970;2023-02-01T08:15:14;19.88;;;4.68;;
14799;SDS011;7491;57.750;11.970;2023-02-01T08:17:45;25.13;;;5.30;;
14799;SDS011;7491;57.750;11.970;2023-02-01T08:20:12;20.23;;;4.28;;
14799;SDS011;7491;57.750;11.970;2023-02-01T08:22:38;20.48;;;4.15;;
14799;SDS011;7491;57.750;11.970;2023-02-01T08:25:05;17.15;;;4.45;;
14799;SDS011;7491;57.750;11.970;2023-02-01T08:27:32;23.77;;;4.35;;
14799;SDS011;7491;57.750;11.970;2023-02-01T08:29:58;22.02;;;5.03;;
14799;SDS011;7491;57.750;11.970;2023-02-01T08:32:26;20.48;;;4.60;;
14799;SDS011;7491;57.750;11.970;2023-02-01T08:34:53;29.40;;;4.85;;
14799;SDS011;7491;57.750;11.970;2023-02-01T08:37:20;19.73;;;5.28;;
14799;SDS011;7491;57.750;11.970;2023-02-01T08:39:47;21.38;;;4.93;;
14799;SDS011;7491;57.750;11.970;2023-02-01T08:42:15;23.23;;;4.50;;
14799;SDS011;7491;57.750;11.970;2023-02-01T08:45:05;25.10;;;4.50;;
14799;SDS011;7491;57.750;11.970;2023-02-01T08:47:34;22.08;;;4.40;;
14799;SDS011;7491;57.750;11.970;2023-02-01T08:50:01;24.92;;;4.15;;
14799;SDS011;7491;57.750;11.970;2023-02-01T08:52:27;28.35;;;5.07;;
14799;SDS011;7491;57.750;11.970;2023-02-01T08:54:53;28.63;;;5.65;;
14799;SDS011;7491;57.750;11.970;2023-02-01T08:57:20;32.70;;;6.53;;
14799;SDS011;7491;57.750;11.970;2023-02-01T08:59:46;28.27;;;5.30;;
14799;SDS011;7491;57.750;11.970;2023-02-01T09:02:13;34.75;;;5.45;;
14799;SDS011;7491;57.750;11.970;2023-02-01T09:04:41;22.83;;;4.13;;
14799;SDS011;7491;57.750;11.970;2023-02-01T09:07:07;32.17;;;5.07;;
14799;SDS011;7491;57.750;11.970;2023-02-01T09:09:34;23.35;;;5.10;;
14799;SDS011;7491;57.750;11.970;2023-02-01T09:12:00;33.35;;;6.57;;
14799;SDS011;7491;57.750;11.970;2023-02-01T09:14:27;32.30;;;5.88;;
14799;SDS011;7491;57.750;11.970;2023-02-01T09:16:53;30.92;;;5.93;;
14799;SDS011;7491;57.750;11.970;2023-02-01T09:19:20;33.60;;;5.78;;
14799;SDS011;7491;57.750;11.970;2023-02-01T09:21:47;29.27;;;6.45;;
14799;SDS011;7491;57.750;11.970;2023-02-01T09:24:14;37.20;;;7.15;;
14799;SDS011;7491;57.750;11.970;2023-02-01T09:26:40;33.45;;;6.18;;
14799;SDS011;7491;57.750;11.970;2023-02-01T09:29:07;25.98;;;6.00;;
14799;SDS011;7491;57.750;11.970;2023-02-01T09:31:36;26.50;;;5.47;;
14799;SDS011;7491;57.750;11.970;2023-02-01T09:34:02;30.10;;;6.57;;
14799;SDS011;7491;57.750;11.970;2023-02-01T09:36:29;27.08;;;6.63;;
14799;SDS011;7491;57.750;11.970;2023-02-01T09:38:56;30.95;;;5.63;;
14799;SDS011;7491;57.750;11.970;2023-02-01T09:41:26;31.50;;;6.47;;
14799;SDS011;7491;57.750;11.970;2023-02-01T09:43:58;30.27;;;5.88;;
14799;SDS011;7491;57.750;11.970;2023-02-01T09:46:28;33.85;;;6.03;;
14799;SDS011;7491;57.750;11.970;2023-02-01T09:48:55;26.75;;;5.43;;
14799;SDS011;7491;57.750;11.970;2023-02-01T09:51:23;32.40;;;6.45;;
14799;SDS011;7491;57.750;11.970;2023-02-01T09:53:54;34.72;;;6.03;;
14799;SDS011;7491;57.750;11.970;2023-02-01T09:56:26;36.72;;;6.15;;
14799;SDS011;7491;57.750;11.970;2023-02-01T09:58:55;22.67;;;4.65;;
14799;SDS011;7491;57.750;11.970;2023-02-01T10:01:25;41.75;;;6.68;;
14799;SDS011;7491;57.750;11.970;2023-02-01T10:03:54;37.78;;;7.50;;
14799;SDS011;7491;57.750;11.970;2023-02-01T10:06:26;36.78;;;5.53;;
14799;SDS011;7491;57.750;11.970;2023-02-01T10:08:59;33.00;;;6.55;;
14799;SDS011;7491;57.750;11.970;2023-02-01T10:11:30;34.50;;;6.97;;
14799;SDS011;7491;57.750;11.970;2023-02-01T10:14:14;37.83;;;5.40;;
14799;SDS011;7491;57.750;11.970;2023-02-01T10:16:46;39.47;;;5.63;;
14799;SDS011;7491;57.750;11.970;2023-02-01T10:19:20;29.98;;;6.28;;
14799;SDS011;7491;57.750;11.970;2023-02-01T10:21:51;33.85;;;7.22;;
14799;SDS011;7491;57.750;11.970;2023-02-01T10:24:25;29.55;;;5.75;;
14799;SDS011;7491;57.750;11.970;2023-02-01T10:26:56;32.67;;;5.53;;
14799;SDS011;7491;57.750;11.970;2023-02-01T10:29:24;33.00;;;5.57;;
14799;SDS011;7491;57.750;11.970;2023-02-01T10:31:52;34.97;;;8.02;;
14799;SDS011;7491;57.750;11.970;2023-02-01T10:34:20;32.35;;;6.47;;
14799;SDS011;7491;57.750;11.970;2023-02-01T10:36:50;35.63;;;6.47;;
14799;SDS011;7491;57.750;11.970;2023-02-01T10:39:18;32.28;;;5.90;;
14799;SDS011;7491;57.750;11.970;2023-02-01T10:41:44;25.08;;;5.07;;
14799;SDS011;7491;57.750;11.970;2023-02-01T10:44:13;30.15;;;5.10;;
14799;SDS011;7491;57.750;11.970;2023-02-01T10:46:40;28.85;;;5.65;;
14799;SDS011;7491;57.750;11.970;2023-02-01T10:49:08;28.80;;;6.10;;
14799;SDS011;7491;57.750;11.970;2023-02-01T10:51:39;32.47;;;6.57;;
14799;SDS011;7491;57.750;11.970;2023-02-01T10:54:09;33.50;;;5.80;;
14799;SDS011;7491;57.750;11.970;2023-02-01T10:56:37;41.58;;;6.88;;
14799;SDS011;7491;57.750;11.970;2023-02-01T10:59:05;25.42;;;4.60;;
14799;SDS011;7491;57.750;11.970;2023-02-01T11:01:36;32.00;;;6.18;;
14799;SDS011;7491;57.750;11.970;2023-02-01T11:04:04;33.63;;;6.65;;
14799;SDS011;7491;57.750;11.970;2023-02-01T11:06:32;30.15;;;6.70;;
14799;SDS011;7491;57.750;11.970;2023-02-01T11:09:00;41.28;;;7.68;;
14799;SDS011;7491;57.750;11.970;2023-02-01T11:11:27;43.65;;;6.68;;
14799;SDS011;7491;57.750;11.970;2023-02-01T11:13:55;39.08;;;6.00;;
14799;SDS011;7491;57.750;11.970;2023-02-01T11:16:23;40.05;;;8.07;;
14799;SDS011;7491;57.750;11.970;2023-02-01T11:18:55;43.67;;;7.45;;
14799;SDS011;7491;57.750;11.970;2023-02-01T11:21:24;46.05;;;7.60;;
14799;SDS011;7491;57.750;11.970;2023-02-01T11:23:50;31.23;;;6.50;;
14799;SDS011;7491;57.750;11.970;2023-02-01T11:26:20;47.50;;;6.82;;
14799;SDS011;7491;57.750;11.970;2023-02-01T11:28:50;45.35;;;8.43;;
14799;SDS011;7491;57.750;11.970;2023-02-01T11:31:17;36.67;;;7.63;;
14799;SDS011;7491;57.750;11.970;2023-02-01T11:33:47;35.33;;;7.43;;
14799;SDS011;7491;57.750;11.970;2023-02-01T11:36:16;38.15;;;7.93;;
14799;SDS011;7491;57.750;11.970;2023-02-01T11:38:45;44.35;;;8.20;;
14799;SDS011;7491;57.750;11.970;2023-02-01T11:41:12;38.25;;;6.45;;
14799;SDS011;7491;57.750;11.970;2023-02-01T11:43:49;47.08;;;7.00;;
14799;SDS011;7491;57.750;11.970;2023-02-01T11:46:17;60.13;;;9.63;;
14799;SDS011;7491;57.750;11.970;2023-02-01T11:48:47;34.72;;;7.03;;
14799;SDS011;7491;57.750;11.970;2023-02-01T11:51:19;29.25;;;7.05;;
14799;SDS011;7491;57.750;11.970;2023-02-01T11:53:57;31.80;;;6.50;;
14799;SDS011;7491;57.750;11.970;2023-02-01T11:56:25;29.13;;;5.07;;
14799;SDS011;7491;57.750;11.970;2023-02-01T11:59:01;22.20;;;4.38;;
14799;SDS011;7491;57.750;11.970;2023-02-01T12:01:35;23.52;;;5.28;;
14799;SDS011;7491;57.750;11.970;2023-02-01T12:04:18;27.02;;;4.47;;
14799;SDS011;7491;57.750;11.970;2023-02-01T12:06:50;27.25;;;4.97;;
14799;SDS011;7491;57.750;11.970;2023-02-01T12:09:21;25.23;;;5.25;;
14799;SDS011;7491;57.750;11.970;2023-02-01T12:11:55;24.00;;;5.13;;
14799;SDS011;7491;57.750;11.970;2023-02-01T12:14:29;33.72;;;5.50;;
14799;SDS011;7491;57.750;11.970;2023-02-01T12:17:03;28.75;;;5.00;;
14799;SDS011;7491;57.750;11.970;2023-02-01T12:19:39;26.45;;;4.63;;
14799;SDS011;7491;57.750;11.970;2023-02-01T12:22:18;18.42;;;4.88;;
14799;SDS011;7491;57.750;11.970;2023-02-01T12:24:52;28.13;;;5.68;;
14799;SDS011;7491;57.750;11.970;2023-02-01T12:30:08;27.38;;;5.88;;
14799;SDS011;7491;57.750;11.970;2023-02-01T12:32:42;29.00;;;4.75;;
14799;SDS011;7491;57.750;11.970;2023-02-01T12:35:20;27.58;;;4.97;;
14799;SDS011;7491;57.750;11.970;2023-02-01T12:38:05;31.65;;;5.57;;
14799;SDS011;7491;57.750;11.970;2023-02-01T12:40:38;30.92;;;5.28;;
14799;SDS011;7491;57.750;11.970;2023-02-01T12:43:09;38.65;;;6.78;;
14799;SDS011;7491;57.750;11.970;2023-02-01T12:45:40;24.92;;;4.65;;
14799;SDS011;7491;57.750;11.970;2023-02-01T12:48:13;30.08;;;4.93;;
14799;SDS011;7491;57.750;11.970;2023-02-01T12:50:45;25.40;;;4.90;;
14799;SDS011;7491;57.750;11.970;2023-02-01T12:53:15;29.75;;;5.95;;
14799;SDS011;7491;57.750;11.970;2023-02-01T12:55:47;30.52;;;5.38;;
14799;SDS011;7491;57.750;11.970;2023-02-01T12:58:17;34.90;;;7.40;;
14799;SDS011;7491;57.750;11.970;2023-02-01T13:00:44;32.65;;;5.68;;
14799;SDS011;7491;57.750;11.970;2023-02-01T13:03:15;27.45;;;5.78;;
14799;SDS011;7491;57.750;11.970;2023-02-01T13:05:47;31.05;;;6.57;;
14799;SDS011;7491;57.750;11.970;2023-02-01T13:08:19;29.98;;;6.00;;
14799;SDS011;7491;57.750;11.970;2023-02-01T13:10:48;35.28;;;7.50;;
14799;SDS011;7491;57.750;11.970;2023-02-01T13:13:18;33.65;;;7.43;;
14799;SDS011;7491;57.750;11.970;2023-02-01T13:15:46;42.83;;;5.70;;
14799;SDS011;7491;57.750;11.970;2023-02-01T13:18:14;63.83;;;11.32;;
14799;SDS011;7491;57.750;11.970;2023-02-01T13:20:44;71.95;;;11.43;;
14799;SDS011;7491;57.750;11.970;2023-02-01T13:23:11;36.88;;;7.07;;
14799;SDS011;7491;57.750;11.970;2023-02-01T13:25:47;40.72;;;5.93;;
14799;SDS011;7491;57.750;11.970;2023-02-01T13:28:15;42.75;;;6.55;;
14799;SDS011;7491;57.750;11.970;2023-02-01T13:30:51;40.45;;;8.25;;
14799;SDS011;7491;57.750;11.970;2023-02-01T13:33:34;48.92;;;7.57;;
14799;SDS011;7491;57.750;11.970;2023-02-01T13:38:49;45.95;;;7.22;;
14799;SDS011;7491;57.750;11.970;2023-02-01T13:41:25;43.08;;;6.32;;
14799;SDS011;7491;57.750;11.970;2023-02-01T13:43:53;40.35;;;6.03;;
14799;SDS011;7491;57.750;11.970;2023-02-01T13:46:21;31.15;;;6.35;;
14799;SDS011;7491;57.750;11.970;2023-02-01T13:48:48;40.35;;;7.85;;
14799;SDS011;7491;57.750;11.970;2023-02-01T13:51:15;39.85;;;6.95;;
14799;SDS011;7491;57.750;11.970;2023-02-01T13:53:45;48.08;;;7.03;;
14799;SDS011;7491;57.750;11.970;2023-02-01T13:56:13;42.90;;;6.80;;
14799;SDS011;7491;57.750;11.970;2023-02-01T13:58:42;40.17;;;7.00;;
14799;SDS011;7491;57.750;11.970;2023-02-01T14:06:50;68.72;;;9.07;;
14799;SDS011;7491;57.750;11.970;2023-02-01T14:09:19;44.55;;;7.72;;
14799;SDS011;7491;57.750;11.970;2023-02-01T14:11:47;65.47;;;7.82;;
14799;SDS011;7491;57.750;11.970;2023-02-01T14:22:47;29.42;;;4.97;;
14799;SDS011;7491;57.750;11.970;2023-02-01T14:25:16;37.13;;;6.13;;
14799;SDS011;7491;57.750;11.970;2023-02-01T14:27:43;25.63;;;4.82;;
14799;SDS011;7491;57.750;11.970;2023-02-01T14:30:14;46.50;;;7.65;;
14799;SDS011;7491;57.750;11.970;2023-02-01T14:32:41;37.40;;;7.40;;
14799;SDS011;7491;57.750;11.970;2023-02-01T14:35:17;33.83;;;6.35;;
14799;SDS011;7491;57.750;11.970;2023-02-01T14:37:44;24.15;;;5.07;;
14799;SDS011;7491;57.750;11.970;2023-02-01T14:40:16;29.95;;;5.65;;
14799;SDS011;7491;57.750;11.970;2023-02-01T14:42:46;40.72;;;8.95;;
14799;SDS011;7491;57.750;11.970;2023-02-01T14:50:39;21.40;;;3.90;;
14799;SDS011;7491;57.750;11.970;2023-02-01T14:53:19;13.30;;;2.78;;
14799;SDS011;7491;57.750;11.970;2023-02-01T14:55:49;13.75;;;2.50;;
14799;SDS011;7491;57.750;11.970;2023-02-01T14:58:18;12.70;;;2.00;;
14799;SDS011;7491;57.750;11.970;2023-02-01T15:00:47;7.70;;;1.77;;
14799;SDS011;7491;57.750;11.970;2023-02-01T15:03:19;8.70;;;2.22;;
14799;SDS011;7491;57.750;11.970;2023-02-01T15:05:54;5.68;;;1.60;;
14799;SDS011;7491;57.750;11.970;2023-02-01T15:08:21;6.63;;;1.73;;
14799;SDS011;7491;57.750;11.970;2023-02-01T15:10:51;8.82;;;1.60;;
14799;SDS011;7491;57.750;11.970;2023-02-01T15:13:18;5.88;;;1.60;;
14799;SDS011;7491;57.750;11.970;2023-02-01T15:15:58;4.97;;;1.30;;
14799;SDS011;7491;57.750;11.970;2023-02-01T15:18:25;5.68;;;1.30;;
14799;SDS011;7491;57.750;11.970;2023-02-01T15:20:55;5.65;;;1.42;;